sensor_id;sensor_type;location;lat;lon;timestamp;temperature;humidity
11619;DHT22;5865;48.776;9.280;2023-08-30T00:03:32;11.90;99.90
11619;DHT22;5865;48.776;9.280;2023-08-30T00:06:02;12.00;99.90
11619;DHT22;5865;48.776;9.280;2023-08-30T00:08:29;12.00;99.90
11619;DHT22;5865;48.776;9.280;2023-08-30T00:13:24;12.00;99.90
11619;DHT22;5865;48.776;9.280;2023-08-30T00:15:52;12.00;99.90
11619;DHT22;5865;48.776;9.280;2023-08-30T00:18:19;12.00;99.90
11619;DHT22;5865;48.776;9.280;2023-08-30T00:28:09;12.00;99.90
11619;DHT22;5865;48.776;9.280;2023-08-30T00:33:05;12.00;99.90
11619;DHT22;5865;48.776;9.280;2023-08-30T00:35:32;12.00;99.90
11619;DHT22;5865;48.776;9.280;2023-08-30T00:37:59;12.00;99.90
11619;DHT22;5865;48.776;9.280;2023-08-30T00:40:26;15.90;99.90
11619;DHT22;5865;48.776;9.280;2023-08-30T00:57:42;12.00;99.90
11619;DHT22;5865;48.776;9.280;2023-08-30T01:00:09;12.00;99.90
11619;DHT22;5865;48.776;9.280;2023-08-30T01:05:05;11.90;99.90
11619;DHT22;5865;48.776;9.280;2023-08-30T01:07:33;11.90;99.90
11619;DHT22;5865;48.776;9.280;2023-08-30T01:12:31;11.80;99.90
11619;DHT22;5865;48.776;9.280;2023-08-30T01:15:08;11.80;99.90
11619;DHT22;5865;48.776;9.280;2023-08-30T01:17:37;11.80;99.90
11619;DHT22;5865;48.776;9.280;2023-08-30T01:20:07;11.70;99.90
11619;DHT22;5865;48.776;9.280;2023-08-30T01:22:47;11.70;99.90
11619;DHT22;5865;48.776;9.280;2023-08-30T01:25:32;11.70;99.90
11619;DHT22;5865;48.776;9.280;2023-08-30T01:28:06;11.60;99.90
11619;DHT22;5865;48.776;9.280;2023-08-30T01:30:34;11.60;99.90
11619;DHT22;5865;48.776;9.280;2023-08-30T01:33:03;11.60;99.90
11619;DHT22;5865;48.776;9.280;2023-08-30T01:38:02;11.50;99.90
11619;DHT22;5865;48.776;9.280;2023-08-30T01:40:32;11.50;99.90
11619;DHT22;5865;48.776;9.280;2023-08-30T01:43:01;11.40;99.90
11619;DHT22;5865;48.776;9.280;2023-08-30T01:45:32;11.40;99.90
11619;DHT22;5865;48.776;9.280;2023-08-30T01:47:59;11.30;99.90
11619;DHT22;5865;48.776;9.280;2023-08-30T01:50:27;11.30;99.90
11619;DHT22;5865;48.776;9.280;2023-08-30T01:55:23;11.20;99.90
11619;DHT22;5865;48.776;9.280;2023-08-30T02:00:19;11.00;99.90
11619;DHT22;5865;48.776;9.280;2023-08-30T02:02:48;11.10;99.90
11619;DHT22;5865;48.776;9.280;2023-08-30T02:05:15;11.10;99.90
11619;DHT22;5865;48.776;9.280;2023-08-30T02:07:50;10.90;99.90
11619;DHT22;5865;48.776;9.280;2023-08-30T02:10:23;11.00;99.90
11619;DHT22;5865;48.776;9.280;2023-08-30T02:12:53;10.90;99.90
11619;DHT22;5865;48.776;9.280;2023-08-30T02:15:24;11.00;99.90
11619;DHT22;5865;48.776;9.280;2023-08-30T02:17:53;11.10;99.90
11619;DHT22;5865;48.776;9.280;2023-08-30T02:20:22;11.10;99.90
11619;DHT22;5865;48.776;9.280;2023-08-30T02:22:50;11.10;99.90
11619;DHT22;5865;48.776;9.280;2023-08-30T02:27:44;11.30;99.90
11619;DHT22;5865;48.776;9.280;2023-08-30T02:30:11;11.30;99.90
11619;DHT22;5865;48.776;9.280;2023-08-30T02:35:10;11.30;99.90
11619;DHT22;5865;48.776;9.280;2023-08-30T02:37:37;11.40;99.90
11619;DHT22;5865;48.776;9.280;2023-08-30T02:45:02;11.50;99.90
11619;DHT22;5865;48.776;9.280;2023-08-30T02:47:29;11.50;99.90
11619;DHT22;5865;48.776;9.280;2023-08-30T02:49:56;11.50;99.90
11619;DHT22;5865;48.776;9.280;2023-08-30T02:52:24;11.40;99.90
11619;DHT22;5865;48.776;9.280;2023-08-30T02:59:47;11.30;99.90
11619;DHT22;5865;48.776;9.280;2023-08-30T03:07:09;11.30;99.90
11619;DHT22;5865;48.776;9.280;2023-08-30T03:09:38;11.30;99.90
11619;DHT22;5865;48.776;9.280;2023-08-30T03:12:06;11.30;99.90
11619;DHT22;5865;48.776;9.280;2023-08-30T03:14:35;11.30;99.90
11619;DHT22;5865;48.776;9.280;2023-08-30T03:29:22;11.20;99.90
11619;DHT22;5865;48.776;9.280;2023-08-30T03:34:16;11.20;99.90
11619;DHT22;5865;48.776;9.280;2023-08-30T03:36:45;11.20;99.90
11619;DHT22;5865;48.776;9.280;2023-08-30T03:39:16;11.30;99.90
11619;DHT22;5865;48.776;9.280;2023-08-30T03:41:43;11.30;99.90
11619;DHT22;5865;48.776;9.280;2023-08-30T03:49:07;11.50;99.90
11619;DHT22;5865;48.776;9.280;2023-08-30T03:54:03;11.60;99.90
11619;DHT22;5865;48.776;9.280;2023-08-30T03:58:57;11.70;99.90
11619;DHT22;5865;48.776;9.280;2023-08-30T04:01:25;11.70;99.90
11619;DHT22;5865;48.776;9.280;2023-08-30T04:13:45;11.80;99.90
11619;DHT22;5865;48.776;9.280;2023-08-30T04:18:41;11.70;99.90
11619;DHT22;5865;48.776;9.280;2023-08-30T04:26:04;11.70;99.90
11619;DHT22;5865;48.776;9.280;2023-08-30T04:33:29;11.70;99.90
11619;DHT22;5865;48.776;9.280;2023-08-30T04:35:59;11.70;99.90
11619;DHT22;5865;48.776;9.280;2023-08-30T04:40:58;11.80;99.90
11619;DHT22;5865;48.776;9.280;2023-08-30T04:51:00;11.90;99.90
11619;DHT22;5865;48.776;9.280;2023-08-30T04:53:28;11.90;99.90
11619;DHT22;5865;48.776;9.280;2023-08-30T04:55:57;12.00;99.90
11619;DHT22;5865;48.776;9.280;2023-08-30T05:00:56;12.00;99.90
11619;DHT22;5865;48.776;9.280;2023-08-30T05:05:53;12.20;99.90
11619;DHT22;5865;48.776;9.280;2023-08-30T05:08:23;12.30;99.90
11619;DHT22;5865;48.776;9.280;2023-08-30T05:10:53;12.30;99.90
11619;DHT22;5865;48.776;9.280;2023-08-30T05:13:21;12.30;99.90
11619;DHT22;5865;48.776;9.280;2023-08-30T05:15:48;12.30;99.90
11619;DHT22;5865;48.776;9.280;2023-08-30T05:18:18;12.30;99.90
11619;DHT22;5865;48.776;9.280;2023-08-30T05:28:13;12.50;99.90
11619;DHT22;5865;48.776;9.280;2023-08-30T05:30:42;12.50;99.90
11619;DHT22;5865;48.776;9.280;2023-08-30T05:41:35;12.70;99.90
11619;DHT22;5865;48.776;9.280;2023-08-30T05:44:02;12.80;99.90
11619;DHT22;5865;48.776;9.280;2023-08-30T05:48:58;12.80;99.90
11619;DHT22;5865;48.776;9.280;2023-08-30T05:51:28;12.70;99.90
11619;DHT22;5865;48.776;9.280;2023-08-30T05:53:56;12.80;99.90
11619;DHT22;5865;48.776;9.280;2023-08-30T13:17:41;19.10;99.90
11619;DHT22;5865;48.776;9.280;2023-08-30T13:20:10;19.70;99.90
11619;DHT22;5865;48.776;9.280;2023-08-30T13:22:37;19.70;99.90
11619;DHT22;5865;48.776;9.280;2023-08-30T13:25:06;20.30;99.90
11619;DHT22;5865;48.776;9.280;2023-08-30T13:27:34;20.20;99.90
11619;DHT22;5865;48.776;9.280;2023-08-30T13:30:01;20.30;99.90
11619;DHT22;5865;48.776;9.280;2023-08-30T13:32:31;20.50;99.90
11619;DHT22;5865;48.776;9.280;2023-08-30T13:37:28;19.60;99.90
11619;DHT22;5865;48.776;9.280;2023-08-30T13:39:55;19.60;99.90
11619;DHT22;5865;48.776;9.280;2023-08-30T13:44:52;20.20;99.90
11619;DHT22;5865;48.776;9.280;2023-08-30T13:47:20;20.90;99.90
11619;DHT22;5865;48.776;9.280;2023-08-30T13:49:47;20.40;99.90
11619;DHT22;5865;48.776;9.280;2023-08-30T13:52:15;20.90;99.90
11619;DHT22;5865;48.776;9.280;2023-08-30T13:54:43;22.20;99.90
11619;DHT22;5865;48.776;9.280;2023-08-30T13:57:11;23.50;99.90
11619;DHT22;5865;48.776;9.280;2023-08-30T13:59:38;23.20;99.90
11619;DHT22;5865;48.776;9.280;2023-08-30T14:02:06;22.80;99.90
11619;DHT22;5865;48.776;9.280;2023-08-30T14:04:34;22.20;99.90
11619;DHT22;5865;48.776;9.280;2023-08-30T14:09:33;22.60;99.90
11619;DHT22;5865;48.776;9.280;2023-08-30T14:14:29;23.40;99.90
11619;DHT22;5865;48.776;9.280;2023-08-30T14:16:57;24.70;99.90
11619;DHT22;5865;48.776;9.280;2023-08-30T14:19:25;24.20;99.90
11619;DHT22;5865;48.776;9.280;2023-08-30T14:21:52;22.20;99.90
11619;DHT22;5865;48.776;9.280;2023-08-30T14:24:21;22.10;99.90
11619;DHT22;5865;48.776;9.280;2023-08-30T14:26:50;21.90;99.90
11619;DHT22;5865;48.776;9.280;2023-08-30T14:29:21;21.70;99.90
11619;DHT22;5865;48.776;9.280;2023-08-30T14:31:49;21.50;99.90
11619;DHT22;5865;48.776;9.280;2023-08-30T14:36:45;21.20;99.90
11619;DHT22;5865;48.776;9.280;2023-08-30T14:41:42;21.20;99.90
11619;DHT22;5865;48.776;9.280;2023-08-30T14:44:11;21.70;99.90
11619;DHT22;5865;48.776;9.280;2023-08-30T14:46:38;21.40;99.90
11619;DHT22;5865;48.776;9.280;2023-08-30T14:49:06;21.30;99.90
11619;DHT22;5865;48.776;9.280;2023-08-30T14:54:01;20.10;99.90
11619;DHT22;5865;48.776;9.280;2023-08-30T14:56:29;19.80;99.90
11619;DHT22;5865;48.776;9.280;2023-08-30T15:01:26;19.60;99.90
11619;DHT22;5865;48.776;9.280;2023-08-30T15:03:53;19.50;99.90
11619;DHT22;5865;48.776;9.280;2023-08-30T15:08:49;19.10;99.90
11619;DHT22;5865;48.776;9.280;2023-08-30T15:11:16;19.10;99.90
11619;DHT22;5865;48.776;9.280;2023-08-30T15:13:43;19.30;99.90
11619;DHT22;5865;48.776;9.280;2023-08-30T15:16:10;19.60;99.90
11619;DHT22;5865;48.776;9.280;2023-08-30T15:18:39;19.70;99.90
11619;DHT22;5865;48.776;9.280;2023-08-30T15:21:06;19.90;99.90
11619;DHT22;5865;48.776;9.280;2023-08-30T15:23:34;20.30;99.90
11619;DHT22;5865;48.776;9.280;2023-08-30T15:26:04;20.90;99.90
11619;DHT22;5865;48.776;9.280;2023-08-30T15:28:31;20.90;99.90
11619;DHT22;5865;48.776;9.280;2023-08-30T15:30:59;21.10;99.90
11619;DHT22;5865;48.776;9.280;2023-08-30T15:33:26;21.60;99.90
11619;DHT22;5865;48.776;9.280;2023-08-30T15:35:57;21.50;99.90
11619;DHT22;5865;48.776;9.280;2023-08-30T15:38:24;21.50;99.90
11619;DHT22;5865;48.776;9.280;2023-08-30T15:40:53;21.40;99.90
11619;DHT22;5865;48.776;9.280;2023-08-30T15:43:21;21.40;99.90
11619;DHT22;5865;48.776;9.280;2023-08-30T15:45:48;21.30;99.90
11619;DHT22;5865;48.776;9.280;2023-08-30T15:48:16;21.50;99.90
11619;DHT22;5865;48.776;9.280;2023-08-30T15:50:43;22.10;99.90
11619;DHT22;5865;48.776;9.280;2023-08-30T15:53:12;21.90;99.90
11619;DHT22;5865;48.776;9.280;2023-08-30T15:55:39;20.90;99.90
11619;DHT22;5865;48.776;9.280;2023-08-30T15:58:07;20.70;99.90
11619;DHT22;5865;48.776;9.280;2023-08-30T16:00:34;20.20;99.90
11619;DHT22;5865;48.776;9.280;2023-08-30T16:03:06;20.60;99.90
11619;DHT22;5865;48.776;9.280;2023-08-30T16:05:34;21.20;99.90
11619;DHT22;5865;48.776;9.280;2023-08-30T16:10:32;21.50;99.90
11619;DHT22;5865;48.776;9.280;2023-08-30T16:12:59;21.30;99.90
11619;DHT22;5865;48.776;9.280;2023-08-30T16:15:26;21.50;99.90
11619;DHT22;5865;48.776;9.280;2023-08-30T16:17:53;21.50;99.90
11619;DHT22;5865;48.776;9.280;2023-08-30T16:20:21;21.00;99.90
11619;DHT22;5865;48.776;9.280;2023-08-30T16:22:49;21.00;99.90
11619;DHT22;5865;48.776;9.280;2023-08-30T16:25:16;20.80;99.90
11619;DHT22;5865;48.776;9.280;2023-08-30T16:27:45;20.70;99.90
11619;DHT22;5865;48.776;9.280;2023-08-30T16:30:13;20.60;99.90
11619;DHT22;5865;48.776;9.280;2023-08-30T16:32:40;20.30;99.90
11619;DHT22;5865;48.776;9.280;2023-08-30T16:40:05;19.80;99.90
11619;DHT22;5865;48.776;9.280;2023-08-30T16:42:33;19.50;99.90
11619;DHT22;5865;48.776;9.280;2023-08-30T16:45:02;19.40;99.90
11619;DHT22;5865;48.776;9.280;2023-08-30T16:47:29;19.40;99.90
11619;DHT22;5865;48.776;9.280;2023-08-30T16:49:56;19.40;99.90
11619;DHT22;5865;48.776;9.280;2023-08-30T16:52:23;19.30;99.90
11619;DHT22;5865;48.776;9.280;2023-08-30T16:57:18;19.60;99.90
11619;DHT22;5865;48.776;9.280;2023-08-30T16:59:45;19.80;99.90
11619;DHT22;5865;48.776;9.280;2023-08-30T17:02:17;19.80;99.90
11619;DHT22;5865;48.776;9.280;2023-08-30T17:07:12;19.80;99.90
11619;DHT22;5865;48.776;9.280;2023-08-30T17:09:40;19.70;99.90
11619;DHT22;5865;48.776;9.280;2023-08-30T17:12:08;19.60;99.90
11619;DHT22;5865;48.776;9.280;2023-08-30T17:14:35;19.40;99.90
11619;DHT22;5865;48.776;9.280;2023-08-30T17:17:03;19.20;99.90
11619;DHT22;5865;48.776;9.280;2023-08-30T17:19:33;19.10;99.90
11619;DHT22;5865;48.776;9.280;2023-08-30T17:22:00;19.00;99.90
11619;DHT22;5865;48.776;9.280;2023-08-30T17:24:28;18.80;99.90
11619;DHT22;5865;48.776;9.280;2023-08-30T17:26:55;18.50;99.90
11619;DHT22;5865;48.776;9.280;2023-08-30T17:29:22;18.20;99.90
11619;DHT22;5865;48.776;9.280;2023-08-30T17:31:50;18.00;99.90
11619;DHT22;5865;48.776;9.280;2023-08-30T17:34:18;17.80;99.90
11619;DHT22;5865;48.776;9.280;2023-08-30T17:36:47;17.60;99.90
11619;DHT22;5865;48.776;9.280;2023-08-30T17:39:19;17.50;99.90
11619;DHT22;5865;48.776;9.280;2023-08-30T17:41:49;17.40;99.90
11619;DHT22;5865;48.776;9.280;2023-08-30T17:44:15;17.30;99.90
11619;DHT22;5865;48.776;9.280;2023-08-30T17:46:42;17.10;99.90
11619;DHT22;5865;48.776;9.280;2023-08-30T17:49:09;17.00;99.90
11619;DHT22;5865;48.776;9.280;2023-08-30T17:51:37;16.90;99.90
11619;DHT22;5865;48.776;9.280;2023-08-30T17:54:07;16.70;99.90
11619;DHT22;5865;48.776;9.280;2023-08-30T17:56:35;16.50;99.90
11619;DHT22;5865;48.776;9.280;2023-08-30T17:59:03;16.40;99.90
11619;DHT22;5865;48.776;9.280;2023-08-30T18:01:30;16.10;99.90
11619;DHT22;5865;48.776;9.280;2023-08-30T18:03:58;15.90;99.90
11619;DHT22;5865;48.776;9.280;2023-08-30T18:06:27;15.60;99.90
11619;DHT22;5865;48.776;9.280;2023-08-30T18:08:54;15.60;99.90
11619;DHT22;5865;48.776;9.280;2023-08-30T18:11:23;15.40;99.90
11619;DHT22;5865;48.776;9.280;2023-08-30T18:13:51;15.10;99.90
11619;DHT22;5865;48.776;9.280;2023-08-30T18:16:19;14.90;99.90
11619;DHT22;5865;48.776;9.280;2023-08-30T18:18:47;14.90;99.90
11619;DHT22;5865;48.776;9.280;2023-08-30T18:21:14;14.80;99.90
11619;DHT22;5865;48.776;9.280;2023-08-30T18:23:42;14.70;99.90
11619;DHT22;5865;48.776;9.280;2023-08-30T18:26:12;14.60;99.90
11619;DHT22;5865;48.776;9.280;2023-08-30T18:28:40;14.60;99.90
11619;DHT22;5865;48.776;9.280;2023-08-30T19:18:28;14.00;99.90
11619;DHT22;5865;48.776;9.280;2023-08-30T21:25:39;14.30;99.90
11619;DHT22;5865;48.776;9.280;2023-08-30T21:28:07;14.20;99.90
11619;DHT22;5865;48.776;9.280;2023-08-30T21:43:04;14.10;99.90
11619;DHT22;5865;48.776;9.280;2023-08-30T21:45:33;14.10;99.90
11619;DHT22;5865;48.776;9.280;2023-08-30T21:57:53;14.10;99.90
11619;DHT22;5865;48.776;9.280;2023-08-30T22:00:20;14.10;99.90
11619;DHT22;5865;48.776;9.280;2023-08-30T22:02:47;14.20;99.90
11619;DHT22;5865;48.776;9.280;2023-08-30T22:12:40;13.90;99.90
11619;DHT22;5865;48.776;9.280;2023-08-30T22:15:10;13.90;99.90
11619;DHT22;5865;48.776;9.280;2023-08-30T22:17:39;13.80;99.90
11619;DHT22;5865;48.776;9.280;2023-08-30T22:20:08;13.70;99.90
11619;DHT22;5865;48.776;9.280;2023-08-30T22:25:03;13.70;99.90
11619;DHT22;5865;48.776;9.280;2023-08-30T22:27:31;13.60;99.90
11619;DHT22;5865;48.776;9.280;2023-08-30T22:32:28;13.60;99.90
11619;DHT22;5865;48.776;9.280;2023-08-30T22:34:55;13.60;99.90
11619;DHT22;5865;48.776;9.280;2023-08-30T22:37:24;13.50;99.90
11619;DHT22;5865;48.776;9.280;2023-08-30T23:19:28;13.20;99.90
11619;DHT22;5865;48.776;9.280;2023-08-30T23:21:55;13.20;99.90
11619;DHT22;5865;48.776;9.280;2023-08-30T23:26:51;13.20;99.90
11619;DHT22;5865;48.776;9.280;2023-08-30T23:29:19;13.10;99.90
11619;DHT22;5865;48.776;9.280;2023-08-30T23:31:51;13.10;99.90
11619;DHT22;5865;48.776;9.280;2023-08-30T23:39:14;13.10;99.90
